sensor_id;sensor_type;location;lat;lon;timestamp;pressure;altitude;pressure_sealevel;temperature;humidity
12213;BME280;6169;44.158;22.788;2023-02-27T00:04:27;100404.19;;;6.78;58.15
12213;BME280;6169;44.158;22.788;2023-02-27T00:09:30;100406.47;;;6.42;59.62
12213;BME280;6169;44.158;22.788;2023-02-27T00:14:34;100428.69;;;6.83;57.76
12213;BME280;6169;44.158;22.788;2023-02-27T00:19:36;100429.41;;;7.28;57.08
12213;BME280;6169;44.158;22.788;2023-02-27T00:24:38;100442.41;;;7.82;56.10
12213;BME280;6169;44.158;22.788;2023-02-27T00:29:42;100453.75;;;7.90;54.87
12213;BME280;6169;44.158;22.788;2023-02-27T00:34:44;100441.00;;;7.72;55.46
12213;BME280;6169;44.158;22.788;2023-02-27T00:39:47;100443.66;;;7.97;54.83
12213;BME280;6169;44.158;22.788;2023-02-27T00:44:51;100463.72;;;7.71;55.51
12213;BME280;6169;44.158;22.788;2023-02-27T00:49:53;100481.84;;;7.89;55.80
12213;BME280;6169;44.158;22.788;2023-02-27T00:54:56;100497.09;;;7.65;55.88
12213;BME280;6169;44.158;22.788;2023-02-27T00:59:59;100505.94;;;6.97;58.83
12213;BME280;6169;44.158;22.788;2023-02-27T01:05:02;100521.06;;;7.05;59.39
12213;BME280;6169;44.158;22.788;2023-02-27T01:10:05;100517.69;;;6.71;60.17
12213;BME280;6169;44.158;22.788;2023-02-27T01:15:11;100520.72;;;7.26;58.86
12213;BME280;6169;44.158;22.788;2023-02-27T01:20:14;100530.09;;;7.24;59.85
12213;BME280;6169;44.158;22.788;2023-02-27T01:25:16;100537.47;;;7.10;61.81
12213;BME280;6169;44.158;22.788;2023-02-27T01:30:20;100539.81;;;7.00;64.40
12213;BME280;6169;44.158;22.788;2023-02-27T01:35:22;100558.44;;;6.70;68.08
12213;BME280;6169;44.158;22.788;2023-02-27T01:40:25;100561.44;;;7.00;66.24
12213;BME280;6169;44.158;22.788;2023-02-27T01:45:32;100567.69;;;7.32;65.35
12213;BME280;6169;44.158;22.788;2023-02-27T01:50:38;100584.97;;;7.31;65.42
12213;BME280;6169;44.158;22.788;2023-02-27T01:55:43;100596.69;;;7.18;66.80
12213;BME280;6169;44.158;22.788;2023-02-27T02:00:49;100549.28;;;7.47;64.04
12213;BME280;6169;44.158;22.788;2023-02-27T02:05:54;100602.84;;;7.89;64.17
12213;BME280;6169;44.158;22.788;2023-02-27T02:10:57;100632.81;;;7.30;66.41
12213;BME280;6169;44.158;22.788;2023-02-27T02:16:18;100624.91;;;7.29;66.10
12213;BME280;6169;44.158;22.788;2023-02-27T02:22:01;100655.81;;;7.46;65.97
12213;BME280;6169;44.158;22.788;2023-02-27T02:27:21;100654.03;;;7.33;66.37
12213;BME280;6169;44.158;22.788;2023-02-27T02:32:56;100660.09;;;7.22;66.43
12213;BME280;6169;44.158;22.788;2023-02-27T02:38:41;100666.63;;;7.08;66.85
12213;BME280;6169;44.158;22.788;2023-02-27T02:43:59;100675.81;;;7.39;66.05
12213;BME280;6169;44.158;22.788;2023-02-27T02:49:12;100698.94;;;7.34;65.57
12213;BME280;6169;44.158;22.788;2023-02-27T02:54:20;100707.16;;;7.08;66.58
12213;BME280;6169;44.158;22.788;2023-02-27T02:59:31;100717.19;;;6.81;68.15
12213;BME280;6169;44.158;22.788;2023-02-27T03:04:39;100714.03;;;7.04;66.72
12213;BME280;6169;44.158;22.788;2023-02-27T03:09:48;100732.31;;;7.02;66.39
12213;BME280;6169;44.158;22.788;2023-02-27T03:14:54;100754.34;;;7.12;64.82
12213;BME280;6169;44.158;22.788;2023-02-27T03:20:02;100771.78;;;7.23;63.15
12213;BME280;6169;44.158;22.788;2023-02-27T03:25:11;100789.13;;;6.95;63.52
12213;BME280;6169;44.158;22.788;2023-02-27T03:30:18;100806.75;;;6.84;63.87
12213;BME280;6169;44.158;22.788;2023-02-27T03:35:42;100813.44;;;6.75;65.57
12213;BME280;6169;44.158;22.788;2023-02-27T03:40:54;100820.31;;;6.91;66.26
12213;BME280;6169;44.158;22.788;2023-02-27T03:46:03;100843.34;;;6.67;67.74
12213;BME280;6169;44.158;22.788;2023-02-27T03:51:08;100842.34;;;7.08;65.64
12213;BME280;6169;44.158;22.788;2023-02-27T03:56:13;100867.88;;;6.72;67.44
12213;BME280;6169;44.158;22.788;2023-02-27T04:01:17;100873.91;;;7.34;64.26
12213;BME280;6169;44.158;22.788;2023-02-27T04:06:19;100876.81;;;6.73;66.33
12213;BME280;6169;44.158;22.788;2023-02-27T04:11:50;100884.13;;;6.92;65.00
12213;BME280;6169;44.158;22.788;2023-02-27T04:17:12;100896.75;;;6.52;65.31
12213;BME280;6169;44.158;22.788;2023-02-27T04:22:27;100896.97;;;6.63;64.48
12213;BME280;6169;44.158;22.788;2023-02-27T04:27:37;100894.09;;;6.72;64.56
12213;BME280;6169;44.158;22.788;2023-02-27T04:32:45;100904.94;;;6.92;63.59
12213;BME280;6169;44.158;22.788;2023-02-27T04:37:54;100913.41;;;6.82;63.91
12213;BME280;6169;44.158;22.788;2023-02-27T04:43:00;100923.72;;;6.38;65.33
12213;BME280;6169;44.158;22.788;2023-02-27T04:48:09;100945.41;;;6.78;63.57
12213;BME280;6169;44.158;22.788;2023-02-27T04:53:19;100940.91;;;7.25;61.53
12213;BME280;6169;44.158;22.788;2023-02-27T04:58:26;100937.13;;;7.33;61.24
12213;BME280;6169;44.158;22.788;2023-02-27T05:03:33;100950.88;;;6.92;61.18
12213;BME280;6169;44.158;22.788;2023-02-27T05:08:40;100956.41;;;6.70;60.95
12213;BME280;6169;44.158;22.788;2023-02-27T05:13:48;100981.81;;;6.21;61.73
12213;BME280;6169;44.158;22.788;2023-02-27T05:18:53;100992.03;;;5.91;61.90
12213;BME280;6169;44.158;22.788;2023-02-27T05:24:07;101006.13;;;6.21;61.44
12213;BME280;6169;44.158;22.788;2023-02-27T05:29:21;101029.03;;;5.97;62.01
12213;BME280;6169;44.158;22.788;2023-02-27T05:34:30;101050.28;;;6.07;63.22
12213;BME280;6169;44.158;22.788;2023-02-27T05:39:36;101076.00;;;6.09;62.74
12213;BME280;6169;44.158;22.788;2023-02-27T05:44:46;101076.47;;;5.57;64.12
12213;BME280;6169;44.158;22.788;2023-02-27T05:49:52;101085.78;;;5.54;63.13
12213;BME280;6169;44.158;22.788;2023-02-27T05:55:00;101097.53;;;5.46;63.43
12213;BME280;6169;44.158;22.788;2023-02-27T06:00:10;101104.22;;;5.50;62.88
12213;BME280;6169;44.158;22.788;2023-02-27T06:05:15;101087.66;;;5.32;62.28
12213;BME280;6169;44.158;22.788;2023-02-27T06:10:19;101123.38;;;5.84;60.51
12213;BME280;6169;44.158;22.788;2023-02-27T06:15:24;101127.25;;;6.31;59.14
12213;BME280;6169;44.158;22.788;2023-02-27T06:20:27;101130.25;;;6.14;60.43
12213;BME280;6169;44.158;22.788;2023-02-27T06:25:29;101164.72;;;6.12;60.86
12213;BME280;6169;44.158;22.788;2023-02-27T06:30:34;101168.28;;;5.91;60.01
12213;BME280;6169;44.158;22.788;2023-02-27T06:35:36;101172.38;;;6.09;60.05
12213;BME280;6169;44.158;22.788;2023-02-27T06:40:39;101178.69;;;6.22;60.72
12213;BME280;6169;44.158;22.788;2023-02-27T06:45:43;101181.19;;;5.96;61.77
12213;BME280;6169;44.158;22.788;2023-02-27T06:50:50;101187.72;;;6.08;62.97
12213;BME280;6169;44.158;22.788;2023-02-27T06:55:52;101224.94;;;6.13;59.37
12213;BME280;6169;44.158;22.788;2023-02-27T07:00:57;101221.94;;;6.01;60.15
12213;BME280;6169;44.158;22.788;2023-02-27T07:06:04;101229.41;;;6.83;59.53
12213;BME280;6169;44.158;22.788;2023-02-27T07:11:07;101219.25;;;6.01;60.51
12213;BME280;6169;44.158;22.788;2023-02-27T07:16:11;101202.06;;;6.09;60.29
12213;BME280;6169;44.158;22.788;2023-02-27T07:21:13;101206.31;;;6.46;60.31
12213;BME280;6169;44.158;22.788;2023-02-27T07:26:16;101226.50;;;6.57;59.72
12213;BME280;6169;44.158;22.788;2023-02-27T07:31:20;101220.34;;;6.63;57.64
12213;BME280;6169;44.158;22.788;2023-02-27T07:36:22;101230.63;;;6.46;57.64
12213;BME280;6169;44.158;22.788;2023-02-27T07:41:24;101243.88;;;7.04;57.34
12213;BME280;6169;44.158;22.788;2023-02-27T07:46:28;101226.09;;;7.29;56.56
12213;BME280;6169;44.158;22.788;2023-02-27T07:51:31;101229.31;;;7.05;57.08
12213;BME280;6169;44.158;22.788;2023-02-27T07:56:33;101237.25;;;6.78;56.78
12213;BME280;6169;44.158;22.788;2023-02-27T08:01:37;101242.47;;;7.08;56.63
12213;BME280;6169;44.158;22.788;2023-02-27T08:06:39;101254.50;;;7.05;56.57
12213;BME280;6169;44.158;22.788;2023-02-27T08:11:42;101261.19;;;6.81;55.68
12213;BME280;6169;44.158;22.788;2023-02-27T08:16:46;101260.56;;;7.62;55.82
12213;BME280;6169;44.158;22.788;2023-02-27T08:21:49;101285.72;;;7.08;55.98
12213;BME280;6169;44.158;22.788;2023-02-27T08:26:51;101273.88;;;6.81;55.25
12213;BME280;6169;44.158;22.788;2023-02-27T08:31:55;101280.03;;;7.38;53.81
12213;BME280;6169;44.158;22.788;2023-02-27T08:36:57;101281.81;;;7.65;52.44
12213;BME280;6169;44.158;22.788;2023-02-27T08:41:59;101288.66;;;7.61;53.67
12213;BME280;6169;44.158;22.788;2023-02-27T08:47:03;101286.44;;;7.85;51.93
12213;BME280;6169;44.158;22.788;2023-02-27T08:52:05;101292.69;;;7.92;51.95
12213;BME280;6169;44.158;22.788;2023-02-27T08:57:09;101297.50;;;7.90;53.00
12213;BME280;6169;44.158;22.788;2023-02-27T09:02:13;101298.72;;;7.26;52.94
12213;BME280;6169;44.158;22.788;2023-02-27T09:07:15;101300.09;;;7.56;50.94
12213;BME280;6169;44.158;22.788;2023-02-27T09:12:18;101300.81;;;6.96;53.27
12213;BME280;6169;44.158;22.788;2023-02-27T09:17:21;101304.69;;;7.56;52.46
12213;BME280;6169;44.158;22.788;2023-02-27T09:22:24;101314.81;;;8.09;50.62
12213;BME280;6169;44.158;22.788;2023-02-27T09:27:26;101334.06;;;7.66;51.25
12213;BME280;6169;44.158;22.788;2023-02-27T09:32:30;101334.78;;;7.94;50.38
12213;BME280;6169;44.158;22.788;2023-02-27T09:37:32;101335.34;;;7.28;50.81
12213;BME280;6169;44.158;22.788;2023-02-27T09:42:37;101338.81;;;7.57;50.62
12213;BME280;6169;44.158;22.788;2023-02-27T09:47:48;101326.78;;;7.66;50.99
12213;BME280;6169;44.158;22.788;2023-02-27T09:52:53;101300.94;;;7.64;49.88
12213;BME280;6169;44.158;22.788;2023-02-27T09:58:01;101291.19;;;7.21;52.21
12213;BME280;6169;44.158;22.788;2023-02-27T10:03:21;101294.53;;;7.23;52.25
12213;BME280;6169;44.158;22.788;2023-02-27T10:08:32;101308.91;;;6.96;52.12
12213;BME280;6169;44.158;22.788;2023-02-27T10:13:46;101320.59;;;7.31;51.69
12213;BME280;6169;44.158;22.788;2023-02-27T10:18:56;101345.31;;;7.28;50.81
12213;BME280;6169;44.158;22.788;2023-02-27T10:24:05;101350.53;;;7.77;49.64
12213;BME280;6169;44.158;22.788;2023-02-27T10:29:15;101351.38;;;7.78;49.71
12213;BME280;6169;44.158;22.788;2023-02-27T10:34:21;101340.75;;;7.76;49.79
12213;BME280;6169;44.158;22.788;2023-02-27T10:39:25;101342.16;;;7.59;49.87
12213;BME280;6169;44.158;22.788;2023-02-27T10:44:29;101369.78;;;7.48;49.06
12213;BME280;6169;44.158;22.788;2023-02-27T10:49:35;101349.38;;;7.45;49.98
12213;BME280;6169;44.158;22.788;2023-02-27T10:54:39;101363.00;;;7.72;48.93
12213;BME280;6169;44.158;22.788;2023-02-27T10:59:49;101368.59;;;7.22;50.89
12213;BME280;6169;44.158;22.788;2023-02-27T11:04:54;101384.00;;;7.63;49.92
12213;BME280;6169;44.158;22.788;2023-02-27T11:10:03;101397.34;;;7.65;50.39
12213;BME280;6169;44.158;22.788;2023-02-27T11:15:21;101408.69;;;8.36;48.70
12213;BME280;6169;44.158;22.788;2023-02-27T11:20:34;101416.66;;;8.58;48.21
12213;BME280;6169;44.158;22.788;2023-02-27T11:25:37;101413.19;;;8.22;48.32
12213;BME280;6169;44.158;22.788;2023-02-27T11:30:41;101423.06;;;7.89;47.68
12213;BME280;6169;44.158;22.788;2023-02-27T11:35:51;101431.81;;;7.91;46.58
12213;BME280;6169;44.158;22.788;2023-02-27T11:40:55;101449.53;;;8.41;45.90
12213;BME280;6169;44.158;22.788;2023-02-27T11:45:59;101436.69;;;8.90;46.57
12213;BME280;6169;44.158;22.788;2023-02-27T11:51:23;101444.81;;;9.43;46.48
12213;BME280;6169;44.158;22.788;2023-02-27T11:56:29;101444.00;;;8.89;44.60
12213;BME280;6169;44.158;22.788;2023-02-27T12:01:38;101442.09;;;9.30;44.20
12213;BME280;6169;44.158;22.788;2023-02-27T12:06:51;101456.31;;;8.92;45.10
12213;BME280;6169;44.158;22.788;2023-02-27T12:11:55;101443.88;;;9.89;43.47
12213;BME280;6169;44.158;22.788;2023-02-27T12:17:02;101439.59;;;9.02;45.67
12213;BME280;6169;44.158;22.788;2023-02-27T12:22:16;101446.28;;;8.86;43.45
12213;BME280;6169;44.158;22.788;2023-02-27T12:27:23;101465.06;;;8.94;44.83
12213;BME280;6169;44.158;22.788;2023-02-27T12:32:32;101459.22;;;8.09;46.10
12213;BME280;6169;44.158;22.788;2023-02-27T12:37:41;101454.22;;;8.13;46.65
12213;BME280;6169;44.158;22.788;2023-02-27T12:43:00;101439.88;;;7.77;47.66
12213;BME280;6169;44.158;22.788;2023-02-27T12:48:16;101430.19;;;8.64;47.26
12213;BME280;6169;44.158;22.788;2023-02-27T12:53:36;101423.34;;;8.75;44.92
12213;BME280;6169;44.158;22.788;2023-02-27T12:58:48;101425.16;;;8.48;46.12
12213;BME280;6169;44.158;22.788;2023-02-27T13:03:57;101410.19;;;8.52;45.62
12213;BME280;6169;44.158;22.788;2023-02-27T13:09:14;101454.75;;;8.43;46.01
12213;BME280;6169;44.158;22.788;2023-02-27T13:14:30;101459.81;;;8.79;45.02
12213;BME280;6169;44.158;22.788;2023-02-27T13:19:41;101451.41;;;8.41;46.13
12213;BME280;6169;44.158;22.788;2023-02-27T13:24:49;101442.53;;;9.27;45.41
12213;BME280;6169;44.158;22.788;2023-02-27T13:30:05;101449.41;;;8.89;45.36
12213;BME280;6169;44.158;22.788;2023-02-27T13:35:21;101435.66;;;9.31;44.00
12213;BME280;6169;44.158;22.788;2023-02-27T13:40:30;101428.97;;;9.20;43.49
12213;BME280;6169;44.158;22.788;2023-02-27T13:45:53;101436.47;;;9.05;44.89
12213;BME280;6169;44.158;22.788;2023-02-27T13:50:56;101449.19;;;8.84;45.58
12213;BME280;6169;44.158;22.788;2023-02-27T13:56:18;101455.03;;;8.75;45.31
12213;BME280;6169;44.158;22.788;2023-02-27T14:01:25;101435.41;;;8.46;44.98
12213;BME280;6169;44.158;22.788;2023-02-27T14:06:28;101427.09;;;8.87;45.16
12213;BME280;6169;44.158;22.788;2023-02-27T14:11:33;101430.19;;;8.64;45.50
12213;BME280;6169;44.158;22.788;2023-02-27T14:17:01;101438.75;;;8.88;43.88
12213;BME280;6169;44.158;22.788;2023-02-27T14:22:32;101437.72;;;8.69;44.39
12213;BME280;6169;44.158;22.788;2023-02-27T14:27:46;101433.56;;;8.93;43.23
12213;BME280;6169;44.158;22.788;2023-02-27T14:32:54;101447.31;;;9.05;43.73
12213;BME280;6169;44.158;22.788;2023-02-27T14:38:01;101457.34;;;8.84;44.55
12213;BME280;6169;44.158;22.788;2023-02-27T14:43:17;101451.28;;;8.76;45.00
12213;BME280;6169;44.158;22.788;2023-02-27T14:48:26;101392.34;;;8.10;44.86
12213;BME280;6169;44.158;22.788;2023-02-27T14:53:28;101450.47;;;9.15;43.78
12213;BME280;6169;44.158;22.788;2023-02-27T14:58:32;101452.34;;;8.95;44.55
12213;BME280;6169;44.158;22.788;2023-02-27T15:03:38;101448.53;;;8.56;46.67
12213;BME280;6169;44.158;22.788;2023-02-27T15:08:45;101466.69;;;8.62;45.00
12213;BME280;6169;44.158;22.788;2023-02-27T15:13:56;101457.25;;;8.38;46.08
12213;BME280;6169;44.158;22.788;2023-02-27T15:19:03;101479.41;;;8.13;46.62
12213;BME280;6169;44.158;22.788;2023-02-27T15:24:23;101494.56;;;8.42;46.84
12213;BME280;6169;44.158;22.788;2023-02-27T15:29:32;101504.38;;;8.02;47.38
12213;BME280;6169;44.158;22.788;2023-02-27T15:34:36;101519.13;;;7.99;47.47
12213;BME280;6169;44.158;22.788;2023-02-27T15:39:38;101517.66;;;7.62;48.35
12213;BME280;6169;44.158;22.788;2023-02-27T15:44:43;101521.75;;;7.86;48.30
12213;BME280;6169;44.158;22.788;2023-02-27T15:49:47;101521.00;;;7.99;47.49
12213;BME280;6169;44.158;22.788;2023-02-27T15:54:52;101522.41;;;7.60;48.93
12213;BME280;6169;44.158;22.788;2023-02-27T15:59:57;101525.66;;;8.12;48.36
12213;BME280;6169;44.158;22.788;2023-02-27T16:05:00;101531.34;;;7.89;49.24
12213;BME280;6169;44.158;22.788;2023-02-27T16:10:07;101537.78;;;7.81;49.74
12213;BME280;6169;44.158;22.788;2023-02-27T16:15:26;101539.69;;;7.87;48.71
12213;BME280;6169;44.158;22.788;2023-02-27T16:20:41;101542.31;;;8.09;48.68
12213;BME280;6169;44.158;22.788;2023-02-27T16:26:12;101564.44;;;8.12;48.69
12213;BME280;6169;44.158;22.788;2023-02-27T16:31:24;101574.38;;;8.05;48.00
12213;BME280;6169;44.158;22.788;2023-02-27T16:36:28;101586.03;;;8.06;47.98
12213;BME280;6169;44.158;22.788;2023-02-27T16:41:31;101587.63;;;7.65;48.61
12213;BME280;6169;44.158;22.788;2023-02-27T16:46:35;101614.03;;;7.85;47.43
12213;BME280;6169;44.158;22.788;2023-02-27T16:51:37;101622.88;;;7.50;49.95
12213;BME280;6169;44.158;22.788;2023-02-27T16:56:40;101622.19;;;7.42;50.62
12213;BME280;6169;44.158;22.788;2023-02-27T17:01:43;101622.09;;;7.35;49.73
12213;BME280;6169;44.158;22.788;2023-02-27T17:06:46;101623.94;;;7.13;49.96
12213;BME280;6169;44.158;22.788;2023-02-27T17:11:48;101618.00;;;7.39;49.41
12213;BME280;6169;44.158;22.788;2023-02-27T17:16:52;101631.00;;;6.93;50.37
12213;BME280;6169;44.158;22.788;2023-02-27T17:21:55;101639.94;;;7.08;49.55
12213;BME280;6169;44.158;22.788;2023-02-27T17:26:57;101642.69;;;7.15;50.29
12213;BME280;6169;44.158;22.788;2023-02-27T17:32:01;101655.88;;;7.03;49.83
12213;BME280;6169;44.158;22.788;2023-02-27T17:37:03;101669.59;;;7.01;49.66
12213;BME280;6169;44.158;22.788;2023-02-27T17:42:06;101660.19;;;6.97;49.12
12213;BME280;6169;44.158;22.788;2023-02-27T17:47:10;101664.00;;;6.58;51.57
12213;BME280;6169;44.158;22.788;2023-02-27T17:52:12;101660.84;;;6.55;51.43
12213;BME280;6169;44.158;22.788;2023-02-27T17:57:14;101676.31;;;6.46;51.12
12213;BME280;6169;44.158;22.788;2023-02-27T18:02:19;101679.31;;;5.98;52.39
12213;BME280;6169;44.158;22.788;2023-02-27T18:07:21;101671.84;;;6.24;51.50
12213;BME280;6169;44.158;22.788;2023-02-27T18:12:23;101682.88;;;6.14;51.20
12213;BME280;6169;44.158;22.788;2023-02-27T18:17:27;101683.09;;;6.27;51.03
12213;BME280;6169;44.158;22.788;2023-02-27T18:22:30;101684.28;;;6.25;51.41
12213;BME280;6169;44.158;22.788;2023-02-27T18:27:33;101678.63;;;6.64;50.36
12213;BME280;6169;44.158;22.788;2023-02-27T18:32:37;101678.44;;;6.51;50.06
12213;BME280;6169;44.158;22.788;2023-02-27T18:37:39;101674.16;;;6.41;51.02
12213;BME280;6169;44.158;22.788;2023-02-27T18:42:43;101680.56;;;6.26;51.68
12213;BME280;6169;44.158;22.788;2023-02-27T18:47:49;101669.97;;;6.39;50.22
12213;BME280;6169;44.158;22.788;2023-02-27T18:52:52;101672.03;;;5.84;52.12
12213;BME280;6169;44.158;22.788;2023-02-27T18:57:56;101671.84;;;6.24;50.04
12213;BME280;6169;44.158;22.788;2023-02-27T19:03:01;101674.63;;;5.92;50.78
12213;BME280;6169;44.158;22.788;2023-02-27T19:08:06;101679.22;;;5.69;50.72
12213;BME280;6169;44.158;22.788;2023-02-27T19:13:09;101696.84;;;5.57;50.75
12213;BME280;6169;44.158;22.788;2023-02-27T19:18:14;101711.69;;;5.52;51.20
12213;BME280;6169;44.158;22.788;2023-02-27T19:23:17;101712.31;;;5.63;50.59
12213;BME280;6169;44.158;22.788;2023-02-27T19:28:20;101735.25;;;5.90;50.03
12213;BME280;6169;44.158;22.788;2023-02-27T19:33:24;101731.06;;;5.25;50.93
12213;BME280;6169;44.158;22.788;2023-02-27T19:38:26;101733.81;;;5.17;51.29
12213;BME280;6169;44.158;22.788;2023-02-27T19:43:29;101737.66;;;5.30;51.66
12213;BME280;6169;44.158;22.788;2023-02-27T19:48:33;101733.72;;;5.33;50.56
12213;BME280;6169;44.158;22.788;2023-02-27T19:53:37;101749.75;;;5.26;50.82
12213;BME280;6169;44.158;22.788;2023-02-27T19:58:40;101751.84;;;4.69;52.84
12213;BME280;6169;44.158;22.788;2023-02-27T20:03:44;101760.53;;;5.26;51.82
12213;BME280;6169;44.158;22.788;2023-02-27T20:08:47;101765.25;;;4.77;52.53
12213;BME280;6169;44.158;22.788;2023-02-27T20:13:50;101773.19;;;5.26;51.51
12213;BME280;6169;44.158;22.788;2023-02-27T20:18:54;101774.78;;;4.07;54.25
12213;BME280;6169;44.158;22.788;2023-02-27T20:23:57;101756.56;;;5.76;49.66
12213;BME280;6169;44.158;22.788;2023-02-27T20:29:02;101794.84;;;5.49;51.58
12213;BME280;6169;44.158;22.788;2023-02-27T20:34:07;101800.94;;;5.74;51.51
12213;BME280;6169;44.158;22.788;2023-02-27T20:39:12;101810.81;;;5.11;54.03
12213;BME280;6169;44.158;22.788;2023-02-27T20:44:15;101813.44;;;5.67;53.52
12213;BME280;6169;44.158;22.788;2023-02-27T20:49:19;101821.06;;;5.63;53.47
12213;BME280;6169;44.158;22.788;2023-02-27T20:54:22;101830.63;;;5.74;53.55
12213;BME280;6169;44.158;22.788;2023-02-27T20:59:24;101836.66;;;6.07;52.79
12213;BME280;6169;44.158;22.788;2023-02-27T21:04:29;101848.91;;;6.18;52.57
12213;BME280;6169;44.158;22.788;2023-02-27T21:09:42;101838.69;;;6.28;53.01
12213;BME280;6169;44.158;22.788;2023-02-27T21:14:44;101850.16;;;5.84;51.39
12213;BME280;6169;44.158;22.788;2023-02-27T21:19:50;101832.03;;;5.93;54.40
12213;BME280;6169;44.158;22.788;2023-02-27T21:24:53;101838.81;;;6.58;51.58
12213;BME280;6169;44.158;22.788;2023-02-27T21:29:56;101834.69;;;6.62;52.24
12213;BME280;6169;44.158;22.788;2023-02-27T21:35:00;101847.56;;;6.37;53.46
12213;BME280;6169;44.158;22.788;2023-02-27T21:40:04;101845.13;;;6.04;54.81
12213;BME280;6169;44.158;22.788;2023-02-27T21:45:08;101833.97;;;6.68;51.84
12213;BME280;6169;44.158;22.788;2023-02-27T21:50:12;101842.72;;;6.32;53.97
12213;BME280;6169;44.158;22.788;2023-02-27T21:55:15;101836.19;;;6.64;51.91
12213;BME280;6169;44.158;22.788;2023-02-27T22:00:19;101847.53;;;6.22;54.16
12213;BME280;6169;44.158;22.788;2023-02-27T22:05:27;101842.56;;;6.72;52.34
12213;BME280;6169;44.158;22.788;2023-02-27T22:10:29;101834.47;;;5.80;54.77
12213;BME280;6169;44.158;22.788;2023-02-27T22:15:35;101830.84;;;5.95;55.09
12213;BME280;6169;44.158;22.788;2023-02-27T22:20:39;101837.91;;;6.19;54.05
12213;BME280;6169;44.158;22.788;2023-02-27T22:25:42;101853.66;;;6.16;55.16
12213;BME280;6169;44.158;22.788;2023-02-27T22:30:44;101841.75;;;6.25;54.27
12213;BME280;6169;44.158;22.788;2023-02-27T22:35:50;101860.44;;;6.58;53.93
12213;BME280;6169;44.158;22.788;2023-02-27T22:40:52;101873.47;;;5.69;56.72
12213;BME280;6169;44.158;22.788;2023-02-27T22:45:55;101890.56;;;6.47;55.38
12213;BME280;6169;44.158;22.788;2023-02-27T22:51:00;101893.34;;;6.76;54.61
12213;BME280;6169;44.158;22.788;2023-02-27T22:56:05;101879.56;;;7.09;54.37
12213;BME280;6169;44.158;22.788;2023-02-27T23:01:08;101893.66;;;7.19;52.90
12213;BME280;6169;44.158;22.788;2023-02-27T23:06:14;101904.53;;;6.73;55.74
12213;BME280;6169;44.158;22.788;2023-02-27T23:11:18;101922.16;;;6.69;55.91
12213;BME280;6169;44.158;22.788;2023-02-27T23:16:20;101917.06;;;5.41;61.10
12213;BME280;6169;44.158;22.788;2023-02-27T23:21:26;101924.56;;;6.10;59.29
12213;BME280;6169;44.158;22.788;2023-02-27T23:26:34;101906.69;;;6.32;57.28
12213;BME280;6169;44.158;22.788;2023-02-27T23:31:37;101932.06;;;5.91;60.01
12213;BME280;6169;44.158;22.788;2023-02-27T23:36:41;101927.72;;;6.44;58.81
12213;BME280;6169;44.158;22.788;2023-02-27T23:41:43;101938.94;;;6.02;60.87
12213;BME280;6169;44.158;22.788;2023-02-27T23:46:46;101941.72;;;6.17;60.77
12213;BME280;6169;44.158;22.788;2023-02-27T23:51:50;101937.09;;;6.57;58.55
12213;BME280;6169;44.158;22.788;2023-02-27T23:56:53;101940.91;;;6.39;58.77
